sensor_id;sensor_type;location;lat;lon;timestamp;temperature;humidity
65985;HTU21D;52748;51.112;5.880;2023-11-19T00:01:11;18.36;85.60
65985;HTU21D;52748;51.112;5.880;2023-11-19T00:03:36;18.35;85.63
65985;HTU21D;52748;51.112;5.880;2023-11-19T00:06:02;18.35;85.64
65985;HTU21D;52748;51.112;5.880;2023-11-19T00:08:30;18.36;85.42
65985;HTU21D;52748;51.112;5.880;2023-11-19T00:10:55;18.37;85.30
65985;HTU21D;52748;51.112;5.880;2023-11-19T00:13:21;18.37;85.29
65985;HTU21D;52748;51.112;5.880;2023-11-19T00:15:48;18.36;85.32
65985;HTU21D;52748;51.112;5.880;2023-11-19T00:18:14;18.35;85.41
65985;HTU21D;52748;51.112;5.880;2023-11-19T00:20:40;18.34;85.39
65985;HTU21D;52748;51.112;5.880;2023-11-19T00:23:05;18.34;85.36
65985;HTU21D;52748;51.112;5.880;2023-11-19T00:25:31;18.35;85.21
65985;HTU21D;52748;51.112;5.880;2023-11-19T00:27:57;18.35;85.04
65985;HTU21D;52748;51.112;5.880;2023-11-19T00:30:23;18.35;84.85
65985;HTU21D;52748;51.112;5.880;2023-11-19T00:32:48;18.33;84.93
65985;HTU21D;52748;51.112;5.880;2023-11-19T00:35:14;18.35;85.03
65985;HTU21D;52748;51.112;5.880;2023-11-19T00:37:40;18.35;84.90
65985;HTU21D;52748;51.112;5.880;2023-11-19T00:40:08;18.35;84.76
65985;HTU21D;52748;51.112;5.880;2023-11-19T00:42:36;18.34;84.92
65985;HTU21D;52748;51.112;5.880;2023-11-19T00:45:02;18.36;84.77
65985;HTU21D;52748;51.112;5.880;2023-11-19T00:47:27;18.35;84.80
65985;HTU21D;52748;51.112;5.880;2023-11-19T00:49:53;18.35;84.44
65985;HTU21D;52748;51.112;5.880;2023-11-19T00:52:19;18.34;84.51
65985;HTU21D;52748;51.112;5.880;2023-11-19T00:54:45;18.35;84.43
65985;HTU21D;52748;51.112;5.880;2023-11-19T00:57:11;18.33;84.51
65985;HTU21D;52748;51.112;5.880;2023-11-19T00:59:37;18.35;84.49
65985;HTU21D;52748;51.112;5.880;2023-11-19T01:02:03;18.34;84.35
65985;HTU21D;52748;51.112;5.880;2023-11-19T01:04:35;18.33;84.32
65985;HTU21D;52748;51.112;5.880;2023-11-19T01:07:02;18.35;84.19
65985;HTU21D;52748;51.112;5.880;2023-11-19T01:09:30;18.35;84.23
65985;HTU21D;52748;51.112;5.880;2023-11-19T01:11:58;18.33;84.25
65985;HTU21D;52748;51.112;5.880;2023-11-19T01:14:26;18.33;84.29
65985;HTU21D;52748;51.112;5.880;2023-11-19T01:16:52;18.33;84.14
65985;HTU21D;52748;51.112;5.880;2023-11-19T01:19:21;18.33;84.16
65985;HTU21D;52748;51.112;5.880;2023-11-19T01:21:48;18.33;84.23
65985;HTU21D;52748;51.112;5.880;2023-11-19T01:24:14;18.33;84.17
65985;HTU21D;52748;51.112;5.880;2023-11-19T01:26:40;18.33;84.09
65985;HTU21D;52748;51.112;5.880;2023-11-19T01:29:15;18.32;83.94
65985;HTU21D;52748;51.112;5.880;2023-11-19T01:31:46;18.32;83.83
65985;HTU21D;52748;51.112;5.880;2023-11-19T01:34:16;18.33;83.83
65985;HTU21D;52748;51.112;5.880;2023-11-19T01:36:42;18.33;83.80
65985;HTU21D;52748;51.112;5.880;2023-11-19T01:39:08;18.34;83.79
65985;HTU21D;52748;51.112;5.880;2023-11-19T01:41:35;18.34;83.61
65985;HTU21D;52748;51.112;5.880;2023-11-19T01:44:01;18.34;83.67
65985;HTU21D;52748;51.112;5.880;2023-11-19T01:46:29;18.33;83.76
65985;HTU21D;52748;51.112;5.880;2023-11-19T01:48:56;18.30;83.73
65985;HTU21D;52748;51.112;5.880;2023-11-19T01:51:22;18.32;83.61
65985;HTU21D;52748;51.112;5.880;2023-11-19T01:53:49;18.32;83.53
65985;HTU21D;52748;51.112;5.880;2023-11-19T01:56:16;18.32;83.44
65985;HTU21D;52748;51.112;5.880;2023-11-19T01:58:43;18.32;83.65
65985;HTU21D;52748;51.112;5.880;2023-11-19T02:01:11;18.33;83.48
65985;HTU21D;52748;51.112;5.880;2023-11-19T02:03:38;18.32;83.61
65985;HTU21D;52748;51.112;5.880;2023-11-19T02:06:04;18.32;83.65
65985;HTU21D;52748;51.112;5.880;2023-11-19T02:08:30;18.32;83.58
65985;HTU21D;52748;51.112;5.880;2023-11-19T02:10:56;18.32;83.66
65985;HTU21D;52748;51.112;5.880;2023-11-19T02:13:26;18.33;83.58
65985;HTU21D;52748;51.112;5.880;2023-11-19T02:15:53;18.32;83.50
65985;HTU21D;52748;51.112;5.880;2023-11-19T02:18:20;18.33;83.42
65985;HTU21D;52748;51.112;5.880;2023-11-19T02:20:48;18.32;83.49
65985;HTU21D;52748;51.112;5.880;2023-11-19T02:23:15;18.30;83.45
65985;HTU21D;52748;51.112;5.880;2023-11-19T02:25:43;18.33;83.35
65985;HTU21D;52748;51.112;5.880;2023-11-19T02:28:13;18.32;83.29
65985;HTU21D;52748;51.112;5.880;2023-11-19T02:30:40;18.30;83.28
65985;HTU21D;52748;51.112;5.880;2023-11-19T02:33:05;18.32;83.27
65985;HTU21D;52748;51.112;5.880;2023-11-19T02:35:32;18.30;83.24
65985;HTU21D;52748;51.112;5.880;2023-11-19T02:37:59;18.30;83.23
65985;HTU21D;52748;51.112;5.880;2023-11-19T02:40:26;18.32;83.13
65985;HTU21D;52748;51.112;5.880;2023-11-19T02:42:53;18.32;83.05
65985;HTU21D;52748;51.112;5.880;2023-11-19T02:45:22;18.33;82.87
65985;HTU21D;52748;51.112;5.880;2023-11-19T02:47:49;18.35;82.97
65985;HTU21D;52748;51.112;5.880;2023-11-19T02:50:16;18.30;83.00
65985;HTU21D;52748;51.112;5.880;2023-11-19T02:52:43;18.32;82.94
65985;HTU21D;52748;51.112;5.880;2023-11-19T02:55:10;18.32;82.90
65985;HTU21D;52748;51.112;5.880;2023-11-19T02:57:39;18.30;82.87
65985;HTU21D;52748;51.112;5.880;2023-11-19T03:00:19;18.32;82.62
65985;HTU21D;52748;51.112;5.880;2023-11-19T03:02:50;18.32;82.67
65985;HTU21D;52748;51.112;5.880;2023-11-19T03:05:26;18.30;82.77
65985;HTU21D;52748;51.112;5.880;2023-11-19T03:07:52;18.33;82.63
65985;HTU21D;52748;51.112;5.880;2023-11-19T03:10:19;18.32;82.52
65985;HTU21D;52748;51.112;5.880;2023-11-19T03:12:45;18.33;82.51
65985;HTU21D;52748;51.112;5.880;2023-11-19T03:15:11;18.32;82.58
65985;HTU21D;52748;51.112;5.880;2023-11-19T03:17:42;18.33;82.54
65985;HTU21D;52748;51.112;5.880;2023-11-19T03:20:10;18.32;82.48
65985;HTU21D;52748;51.112;5.880;2023-11-19T03:22:37;18.32;82.52
65985;HTU21D;52748;51.112;5.880;2023-11-19T03:25:03;18.30;82.64
65985;HTU21D;52748;51.112;5.880;2023-11-19T03:27:29;18.32;82.74
65985;HTU21D;52748;51.112;5.880;2023-11-19T03:29:55;18.32;82.63
65985;HTU21D;52748;51.112;5.880;2023-11-19T03:32:21;18.30;82.49
65985;HTU21D;52748;51.112;5.880;2023-11-19T03:34:47;18.32;82.40
65985;HTU21D;52748;51.112;5.880;2023-11-19T03:37:12;18.34;82.25
65985;HTU21D;52748;51.112;5.880;2023-11-19T03:39:42;18.32;82.30
65985;HTU21D;52748;51.112;5.880;2023-11-19T03:42:08;18.33;82.29
65985;HTU21D;52748;51.112;5.880;2023-11-19T03:44:34;18.33;82.39
65985;HTU21D;52748;51.112;5.880;2023-11-19T03:47:00;18.32;82.29
65985;HTU21D;52748;51.112;5.880;2023-11-19T03:49:26;18.32;82.22
65985;HTU21D;52748;51.112;5.880;2023-11-19T03:51:52;18.32;82.14
65985;HTU21D;52748;51.112;5.880;2023-11-19T03:54:17;18.32;82.09
65985;HTU21D;52748;51.112;5.880;2023-11-19T03:56:43;18.33;82.04
65985;HTU21D;52748;51.112;5.880;2023-11-19T03:59:09;18.33;82.02
65985;HTU21D;52748;51.112;5.880;2023-11-19T04:01:35;18.33;82.08
65985;HTU21D;52748;51.112;5.880;2023-11-19T04:04:03;18.32;82.05
65985;HTU21D;52748;51.112;5.880;2023-11-19T04:06:28;18.32;82.01
65985;HTU21D;52748;51.112;5.880;2023-11-19T04:08:54;18.33;81.97
65985;HTU21D;52748;51.112;5.880;2023-11-19T04:11:21;18.30;82.04
65985;HTU21D;52748;51.112;5.880;2023-11-19T04:13:47;18.33;81.91
65985;HTU21D;52748;51.112;5.880;2023-11-19T04:16:12;18.30;82.00
65985;HTU21D;52748;51.112;5.880;2023-11-19T04:18:38;18.32;81.98
65985;HTU21D;52748;51.112;5.880;2023-11-19T04:21:06;18.30;81.94
65985;HTU21D;52748;51.112;5.880;2023-11-19T04:23:32;18.32;81.82
65985;HTU21D;52748;51.112;5.880;2023-11-19T04:25:58;18.30;81.99
65985;HTU21D;52748;51.112;5.880;2023-11-19T04:28:24;18.30;81.91
65985;HTU21D;52748;51.112;5.880;2023-11-19T04:30:52;18.32;81.81
65985;HTU21D;52748;51.112;5.880;2023-11-19T04:33:18;18.30;81.89
65985;HTU21D;52748;51.112;5.880;2023-11-19T04:35:44;18.28;81.81
65985;HTU21D;52748;51.112;5.880;2023-11-19T04:38:09;18.29;81.75
65985;HTU21D;52748;51.112;5.880;2023-11-19T04:40:36;18.30;81.72
65985;HTU21D;52748;51.112;5.880;2023-11-19T04:43:01;18.29;81.72
65985;HTU21D;52748;51.112;5.880;2023-11-19T04:45:27;18.30;81.72
65985;HTU21D;52748;51.112;5.880;2023-11-19T04:47:53;18.30;81.61
65985;HTU21D;52748;51.112;5.880;2023-11-19T04:50:19;18.30;81.61
65985;HTU21D;52748;51.112;5.880;2023-11-19T04:52:44;18.30;81.60
65985;HTU21D;52748;51.112;5.880;2023-11-19T04:55:12;18.29;81.59
65985;HTU21D;52748;51.112;5.880;2023-11-19T04:57:37;18.29;81.59
65985;HTU21D;52748;51.112;5.880;2023-11-19T05:00:04;18.29;81.56
65985;HTU21D;52748;51.112;5.880;2023-11-19T05:02:30;18.29;81.44
65985;HTU21D;52748;51.112;5.880;2023-11-19T05:04:56;18.32;81.46
65985;HTU21D;52748;51.112;5.880;2023-11-19T05:07:22;18.30;81.52
65985;HTU21D;52748;51.112;5.880;2023-11-19T05:09:48;18.30;81.55
65985;HTU21D;52748;51.112;5.880;2023-11-19T05:12:14;18.29;81.71
65985;HTU21D;52748;51.112;5.880;2023-11-19T05:14:39;18.28;81.65
65985;HTU21D;52748;51.112;5.880;2023-11-19T05:17:05;18.28;81.59
65985;HTU21D;52748;51.112;5.880;2023-11-19T05:19:31;18.28;81.53
65985;HTU21D;52748;51.112;5.880;2023-11-19T05:21:57;18.29;81.45
65985;HTU21D;52748;51.112;5.880;2023-11-19T05:24:22;18.29;81.43
65985;HTU21D;52748;51.112;5.880;2023-11-19T05:26:48;18.28;81.39
65985;HTU21D;52748;51.112;5.880;2023-11-19T05:29:16;18.29;81.36
65985;HTU21D;52748;51.112;5.880;2023-11-19T05:31:42;18.29;81.34
65985;HTU21D;52748;51.112;5.880;2023-11-19T05:34:08;18.30;81.29
65985;HTU21D;52748;51.112;5.880;2023-11-19T05:36:33;18.29;81.17
65985;HTU21D;52748;51.112;5.880;2023-11-19T05:38:59;18.30;81.20
65985;HTU21D;52748;51.112;5.880;2023-11-19T05:41:25;18.29;81.23
65985;HTU21D;52748;51.112;5.880;2023-11-19T05:43:50;18.30;81.12
65985;HTU21D;52748;51.112;5.880;2023-11-19T05:46:17;18.27;81.21
65985;HTU21D;52748;51.112;5.880;2023-11-19T05:48:42;18.29;81.11
65985;HTU21D;52748;51.112;5.880;2023-11-19T05:51:09;18.27;81.20
65985;HTU21D;52748;51.112;5.880;2023-11-19T05:53:34;18.27;81.23
65985;HTU21D;52748;51.112;5.880;2023-11-19T05:56:00;18.29;81.06
65985;HTU21D;52748;51.112;5.880;2023-11-19T05:58:29;18.29;80.95
65985;HTU21D;52748;51.112;5.880;2023-11-19T06:00:56;18.29;80.93
65985;HTU21D;52748;51.112;5.880;2023-11-19T06:03:22;18.27;81.04
65985;HTU21D;52748;51.112;5.880;2023-11-19T06:05:49;18.28;81.03
65985;HTU21D;52748;51.112;5.880;2023-11-19T06:08:15;18.28;81.01
65985;HTU21D;52748;51.112;5.880;2023-11-19T06:10:43;18.27;80.94
65985;HTU21D;52748;51.112;5.880;2023-11-19T06:13:09;18.29;80.80
65985;HTU21D;52748;51.112;5.880;2023-11-19T06:15:36;18.27;80.91
65985;HTU21D;52748;51.112;5.880;2023-11-19T06:18:03;18.27;80.91
65985;HTU21D;52748;51.112;5.880;2023-11-19T06:20:29;18.28;80.87
65985;HTU21D;52748;51.112;5.880;2023-11-19T06:22:56;18.30;80.75
65985;HTU21D;52748;51.112;5.880;2023-11-19T06:25:22;18.29;80.88
65985;HTU21D;52748;51.112;5.880;2023-11-19T06:27:50;18.28;80.81
65985;HTU21D;52748;51.112;5.880;2023-11-19T06:30:16;18.29;80.77
65985;HTU21D;52748;51.112;5.880;2023-11-19T06:32:42;18.29;80.66
65985;HTU21D;52748;51.112;5.880;2023-11-19T06:35:08;18.30;80.66
65985;HTU21D;52748;51.112;5.880;2023-11-19T06:37:44;18.29;80.81
65985;HTU21D;52748;51.112;5.880;2023-11-19T06:40:10;18.29;80.65
65985;HTU21D;52748;51.112;5.880;2023-11-19T06:42:37;18.28;80.62
65985;HTU21D;52748;51.112;5.880;2023-11-19T06:45:04;18.28;80.73
65985;HTU21D;52748;51.112;5.880;2023-11-19T06:47:31;18.28;80.70
65985;HTU21D;52748;51.112;5.880;2023-11-19T06:49:58;18.29;80.56
65985;HTU21D;52748;51.112;5.880;2023-11-19T06:52:24;18.28;80.61
65985;HTU21D;52748;51.112;5.880;2023-11-19T06:54:50;18.27;80.64
65985;HTU21D;52748;51.112;5.880;2023-11-19T06:57:16;18.28;80.54
65985;HTU21D;52748;51.112;5.880;2023-11-19T06:59:43;18.28;80.48
65985;HTU21D;52748;51.112;5.880;2023-11-19T07:02:08;18.28;80.51
65985;HTU21D;52748;51.112;5.880;2023-11-19T07:04:34;18.29;80.50
65985;HTU21D;52748;51.112;5.880;2023-11-19T07:07:00;18.28;80.55
65985;HTU21D;52748;51.112;5.880;2023-11-19T07:09:26;18.29;80.49
65985;HTU21D;52748;51.112;5.880;2023-11-19T07:11:52;18.27;80.65
65985;HTU21D;52748;51.112;5.880;2023-11-19T07:14:19;18.27;80.59
65985;HTU21D;52748;51.112;5.880;2023-11-19T07:16:45;18.27;80.52
65985;HTU21D;52748;51.112;5.880;2023-11-19T07:19:11;18.29;80.37
65985;HTU21D;52748;51.112;5.880;2023-11-19T07:21:41;18.29;80.40
65985;HTU21D;52748;51.112;5.880;2023-11-19T07:24:10;18.28;80.50
65985;HTU21D;52748;51.112;5.880;2023-11-19T07:26:41;18.27;80.49
65985;HTU21D;52748;51.112;5.880;2023-11-19T07:29:08;18.28;80.49
65985;HTU21D;52748;51.112;5.880;2023-11-19T07:31:33;18.28;80.47
65985;HTU21D;52748;51.112;5.880;2023-11-19T07:33:59;18.28;80.47
65985;HTU21D;52748;51.112;5.880;2023-11-19T07:36:25;18.30;80.41
65985;HTU21D;52748;51.112;5.880;2023-11-19T07:38:50;18.29;80.64
65985;HTU21D;52748;51.112;5.880;2023-11-19T07:41:16;18.30;80.67
65985;HTU21D;52748;51.112;5.880;2023-11-19T07:43:45;18.32;80.56
65985;HTU21D;52748;51.112;5.880;2023-11-19T07:46:15;18.32;80.76
65985;HTU21D;52748;51.112;5.880;2023-11-19T07:48:40;18.30;80.88
65985;HTU21D;52748;51.112;5.880;2023-11-19T07:51:08;18.32;80.93
65985;HTU21D;52748;51.112;5.880;2023-11-19T07:53:34;18.33;81.11
65985;HTU21D;52748;51.112;5.880;2023-11-19T07:56:00;18.34;81.20
65985;HTU21D;52748;51.112;5.880;2023-11-19T07:58:26;18.33;81.49
65985;HTU21D;52748;51.112;5.880;2023-11-19T08:00:52;18.33;81.50
65985;HTU21D;52748;51.112;5.880;2023-11-19T08:03:18;18.34;81.67
65985;HTU21D;52748;51.112;5.880;2023-11-19T08:05:49;18.33;81.83
65985;HTU21D;52748;51.112;5.880;2023-11-19T08:08:15;18.33;82.01
65985;HTU21D;52748;51.112;5.880;2023-11-19T08:10:41;18.33;81.80
65985;HTU21D;52748;51.112;5.880;2023-11-19T08:13:07;18.36;81.89
65985;HTU21D;52748;51.112;5.880;2023-11-19T08:15:33;18.35;81.88
65985;HTU21D;52748;51.112;5.880;2023-11-19T08:17:59;18.35;81.87
65985;HTU21D;52748;51.112;5.880;2023-11-19T08:20:24;18.36;82.06
65985;HTU21D;52748;51.112;5.880;2023-11-19T08:22:50;18.35;82.07
65985;HTU21D;52748;51.112;5.880;2023-11-19T08:25:16;18.37;82.13
65985;HTU21D;52748;51.112;5.880;2023-11-19T08:27:42;18.36;81.98
65985;HTU21D;52748;51.112;5.880;2023-11-19T08:30:08;18.37;82.17
65985;HTU21D;52748;51.112;5.880;2023-11-19T08:32:34;18.37;82.25
65985;HTU21D;52748;51.112;5.880;2023-11-19T08:35:01;18.37;82.41
65985;HTU21D;52748;51.112;5.880;2023-11-19T08:37:26;18.36;82.60
65985;HTU21D;52748;51.112;5.880;2023-11-19T08:39:52;18.36;78.75
65985;HTU21D;52748;51.112;5.880;2023-11-19T08:42:19;18.34;76.58
65985;HTU21D;52748;51.112;5.880;2023-11-19T08:44:49;18.32;75.60
65985;HTU21D;52748;51.112;5.880;2023-11-19T08:47:16;18.30;75.02
65985;HTU21D;52748;51.112;5.880;2023-11-19T08:49:45;18.24;75.44
65985;HTU21D;52748;51.112;5.880;2023-11-19T08:52:12;18.22;76.99
65985;HTU21D;52748;51.112;5.880;2023-11-19T08:54:37;18.21;78.73
65985;HTU21D;52748;51.112;5.880;2023-11-19T08:57:04;18.22;80.65
65985;HTU21D;52748;51.112;5.880;2023-11-19T08:59:30;18.21;82.52
65985;HTU21D;52748;51.112;5.880;2023-11-19T09:01:55;18.22;83.93
65985;HTU21D;52748;51.112;5.880;2023-11-19T09:04:21;18.22;84.70
65985;HTU21D;52748;51.112;5.880;2023-11-19T09:06:51;18.23;85.38
65985;HTU21D;52748;51.112;5.880;2023-11-19T09:09:16;18.23;86.09
65985;HTU21D;52748;51.112;5.880;2023-11-19T09:11:42;18.24;86.56
65985;HTU21D;52748;51.112;5.880;2023-11-19T09:14:08;18.24;86.81
65985;HTU21D;52748;51.112;5.880;2023-11-19T09:16:34;18.26;87.13
65985;HTU21D;52748;51.112;5.880;2023-11-19T09:19:00;18.25;87.53
65985;HTU21D;52748;51.112;5.880;2023-11-19T09:21:27;18.25;87.68
65985;HTU21D;52748;51.112;5.880;2023-11-19T09:23:55;18.27;87.97
65985;HTU21D;52748;51.112;5.880;2023-11-19T09:26:21;18.28;88.10
65985;HTU21D;52748;51.112;5.880;2023-11-19T09:28:47;18.28;89.06
65985;HTU21D;52748;51.112;5.880;2023-11-19T09:31:16;18.29;87.95
65985;HTU21D;52748;51.112;5.880;2023-11-19T09:33:43;18.32;88.69
65985;HTU21D;52748;51.112;5.880;2023-11-19T09:36:09;18.30;89.51
65985;HTU21D;52748;51.112;5.880;2023-11-19T09:38:36;18.32;89.74
65985;HTU21D;52748;51.112;5.880;2023-11-19T09:41:05;18.33;89.60
65985;HTU21D;52748;51.112;5.880;2023-11-19T09:43:34;18.33;89.21
65985;HTU21D;52748;51.112;5.880;2023-11-19T09:46:08;18.33;88.86
65985;HTU21D;52748;51.112;5.880;2023-11-19T09:48:38;18.35;88.38
65985;HTU21D;52748;51.112;5.880;2023-11-19T09:51:08;18.36;88.18
65985;HTU21D;52748;51.112;5.880;2023-11-19T09:53:35;18.37;88.06
65985;HTU21D;52748;51.112;5.880;2023-11-19T09:56:03;18.36;87.92
65985;HTU21D;52748;51.112;5.880;2023-11-19T09:58:30;18.37;87.74
65985;HTU21D;52748;51.112;5.880;2023-11-19T10:00:57;18.38;87.48
65985;HTU21D;52748;51.112;5.880;2023-11-19T10:03:33;18.38;87.27
65985;HTU21D;52748;51.112;5.880;2023-11-19T10:06:01;18.40;86.93
65985;HTU21D;52748;51.112;5.880;2023-11-19T10:08:26;18.40;86.85
65985;HTU21D;52748;51.112;5.880;2023-11-19T10:10:52;18.40;86.78
65985;HTU21D;52748;51.112;5.880;2023-11-19T10:13:18;18.40;86.58
65985;HTU21D;52748;51.112;5.880;2023-11-19T10:15:44;18.42;86.41
65985;HTU21D;52748;51.112;5.880;2023-11-19T10:18:10;18.40;86.48
65985;HTU21D;52748;51.112;5.880;2023-11-19T10:20:37;18.40;86.32
65985;HTU21D;52748;51.112;5.880;2023-11-19T10:23:03;18.41;86.40
65985;HTU21D;52748;51.112;5.880;2023-11-19T10:25:29;18.40;85.54
65985;HTU21D;52748;51.112;5.880;2023-11-19T10:27:56;18.40;84.32
65985;HTU21D;52748;51.112;5.880;2023-11-19T10:30:27;18.35;81.27
65985;HTU21D;52748;51.112;5.880;2023-11-19T10:35:34;18.32;83.07
65985;HTU21D;52748;51.112;5.880;2023-11-19T10:38:13;18.33;83.45
65985;HTU21D;52748;51.112;5.880;2023-11-19T10:40:40;18.36;83.45
65985;HTU21D;52748;51.112;5.880;2023-11-19T10:43:06;18.39;83.45
65985;HTU21D;52748;51.112;5.880;2023-11-19T10:45:37;18.40;83.46
65985;HTU21D;52748;51.112;5.880;2023-11-19T10:48:04;18.44;83.23
65985;HTU21D;52748;51.112;5.880;2023-11-19T10:50:37;18.44;83.29
65985;HTU21D;52748;51.112;5.880;2023-11-19T10:53:04;18.44;83.36
65985;HTU21D;52748;51.112;5.880;2023-11-19T10:55:33;18.46;83.52
65985;HTU21D;52748;51.112;5.880;2023-11-19T10:58:08;18.47;83.36
65985;HTU21D;52748;51.112;5.880;2023-11-19T11:00:45;18.47;83.26
65985;HTU21D;52748;51.112;5.880;2023-11-19T11:03:19;18.49;83.09
65985;HTU21D;52748;51.112;5.880;2023-11-19T11:05:49;18.49;82.89
65985;HTU21D;52748;51.112;5.880;2023-11-19T11:08:16;18.49;82.91
65985;HTU21D;52748;51.112;5.880;2023-11-19T11:10:45;18.49;82.82
65985;HTU21D;52748;51.112;5.880;2023-11-19T11:13:13;18.49;82.73
65985;HTU21D;52748;51.112;5.880;2023-11-19T11:15:39;18.50;82.69
65985;HTU21D;52748;51.112;5.880;2023-11-19T11:18:09;18.50;82.56
65985;HTU21D;52748;51.112;5.880;2023-11-19T11:20:35;18.49;82.45
65985;HTU21D;52748;51.112;5.880;2023-11-19T11:29:35;18.49;83.07
65985;HTU21D;52748;51.112;5.880;2023-11-19T11:32:27;18.49;84.23
65985;HTU21D;52748;51.112;5.880;2023-11-19T11:37:37;18.50;84.94
65985;HTU21D;52748;51.112;5.880;2023-11-19T11:40:05;18.47;82.10
65985;HTU21D;52748;51.112;5.880;2023-11-19T11:42:36;18.41;81.00
65985;HTU21D;52748;51.112;5.880;2023-11-19T11:45:08;18.35;80.07
65985;HTU21D;52748;51.112;5.880;2023-11-19T11:50:18;18.24;80.76
65985;HTU21D;52748;51.112;5.880;2023-11-19T11:58:13;18.22;84.42
65985;HTU21D;52748;51.112;5.880;2023-11-19T12:00:40;18.23;84.96
65985;HTU21D;52748;51.112;5.880;2023-11-19T12:03:08;18.24;85.32
65985;HTU21D;52748;51.112;5.880;2023-11-19T12:05:45;18.26;85.55
65985;HTU21D;52748;51.112;5.880;2023-11-19T12:08:16;18.24;85.88
65985;HTU21D;52748;51.112;5.880;2023-11-19T12:10:54;18.24;86.16
65985;HTU21D;52748;51.112;5.880;2023-11-19T12:13:24;18.25;86.24
65985;HTU21D;52748;51.112;5.880;2023-11-19T12:18:27;18.26;86.51
65985;HTU21D;52748;51.112;5.880;2023-11-19T12:20:54;18.28;86.57
65985;HTU21D;52748;51.112;5.880;2023-11-19T12:23:20;18.26;86.83
65985;HTU21D;52748;51.112;5.880;2023-11-19T12:25:46;18.24;86.83
65985;HTU21D;52748;51.112;5.880;2023-11-19T12:28:13;18.26;86.63
65985;HTU21D;52748;51.112;5.880;2023-11-19T12:30:39;18.25;86.67
65985;HTU21D;52748;51.112;5.880;2023-11-19T12:33:09;18.24;86.75
65985;HTU21D;52748;51.112;5.880;2023-11-19T12:35:45;18.25;86.69
65985;HTU21D;52748;51.112;5.880;2023-11-19T12:38:19;18.25;86.76
65985;HTU21D;52748;51.112;5.880;2023-11-19T12:40:46;18.24;86.74
65985;HTU21D;52748;51.112;5.880;2023-11-19T12:43:21;18.25;86.79
65985;HTU21D;52748;51.112;5.880;2023-11-19T12:45:50;18.26;86.76
65985;HTU21D;52748;51.112;5.880;2023-11-19T12:48:16;18.26;86.70
65985;HTU21D;52748;51.112;5.880;2023-11-19T12:50:52;18.26;86.69
65985;HTU21D;52748;51.112;5.880;2023-11-19T12:53:22;18.28;86.75
65985;HTU21D;52748;51.112;5.880;2023-11-19T12:55:48;18.28;86.88
65985;HTU21D;52748;51.112;5.880;2023-11-19T12:58:36;18.28;86.80
65985;HTU21D;52748;51.112;5.880;2023-11-19T13:01:04;18.26;86.96
65985;HTU21D;52748;51.112;5.880;2023-11-19T13:03:36;18.26;86.94
65985;HTU21D;52748;51.112;5.880;2023-11-19T13:06:11;18.26;86.88
65985;HTU21D;52748;51.112;5.880;2023-11-19T13:08:41;18.27;86.83
65985;HTU21D;52748;51.112;5.880;2023-11-19T13:11:08;18.27;86.80
65985;HTU21D;52748;51.112;5.880;2023-11-19T13:13:57;18.26;86.80
65985;HTU21D;52748;51.112;5.880;2023-11-19T13:16:24;18.26;86.82
65985;HTU21D;52748;51.112;5.880;2023-11-19T13:18:50;18.26;86.84
65985;HTU21D;52748;51.112;5.880;2023-11-19T13:21:15;18.27;86.88
65985;HTU21D;52748;51.112;5.880;2023-11-19T13:23:41;18.27;86.83
65985;HTU21D;52748;51.112;5.880;2023-11-19T13:26:08;18.26;86.75
65985;HTU21D;52748;51.112;5.880;2023-11-19T13:28:34;18.26;86.80
65985;HTU21D;52748;51.112;5.880;2023-11-19T13:30:59;18.26;86.75
65985;HTU21D;52748;51.112;5.880;2023-11-19T13:33:25;18.28;86.57
65985;HTU21D;52748;51.112;5.880;2023-11-19T13:35:52;18.27;86.65
65985;HTU21D;52748;51.112;5.880;2023-11-19T13:38:18;18.26;86.67
65985;HTU21D;52748;51.112;5.880;2023-11-19T13:40:43;18.25;86.64
65985;HTU21D;52748;51.112;5.880;2023-11-19T13:43:09;18.26;86.49
65985;HTU21D;52748;51.112;5.880;2023-11-19T13:45:35;18.24;86.56
65985;HTU21D;52748;51.112;5.880;2023-11-19T13:48:00;18.26;86.53
65985;HTU21D;52748;51.112;5.880;2023-11-19T13:50:26;18.26;86.28
65985;HTU21D;52748;51.112;5.880;2023-11-19T13:52:54;18.26;86.15
65985;HTU21D;52748;51.112;5.880;2023-11-19T13:55:20;18.25;86.28
65985;HTU21D;52748;51.112;5.880;2023-11-19T13:57:45;18.25;86.22
65985;HTU21D;52748;51.112;5.880;2023-11-19T14:00:12;18.28;85.94
65985;HTU21D;52748;51.112;5.880;2023-11-19T14:02:39;18.29;85.90
65985;HTU21D;52748;51.112;5.880;2023-11-19T14:05:07;18.29;86.04
65985;HTU21D;52748;51.112;5.880;2023-11-19T14:07:32;18.29;85.95
65985;HTU21D;52748;51.112;5.880;2023-11-19T14:09:59;18.29;85.90
65985;HTU21D;52748;51.112;5.880;2023-11-19T14:12:25;18.33;85.71
65985;HTU21D;52748;51.112;5.880;2023-11-19T14:14:51;18.35;85.59
65985;HTU21D;52748;51.112;5.880;2023-11-19T14:17:16;18.35;85.55
65985;HTU21D;52748;51.112;5.880;2023-11-19T14:19:42;18.36;85.48
65985;HTU21D;52748;51.112;5.880;2023-11-19T14:22:08;18.38;85.36
65985;HTU21D;52748;51.112;5.880;2023-11-19T14:24:34;18.37;85.43
65985;HTU21D;52748;51.112;5.880;2023-11-19T14:27:00;18.37;85.54
65985;HTU21D;52748;51.112;5.880;2023-11-19T14:29:27;18.37;85.45
65985;HTU21D;52748;51.112;5.880;2023-11-19T14:31:56;18.37;85.37
65985;HTU21D;52748;51.112;5.880;2023-11-19T14:34:22;18.37;85.35
65985;HTU21D;52748;51.112;5.880;2023-11-19T14:36:48;18.38;85.14
65985;HTU21D;52748;51.112;5.880;2023-11-19T14:39:15;18.38;85.23
65985;HTU21D;52748;51.112;5.880;2023-11-19T14:41:42;18.37;85.19
65985;HTU21D;52748;51.112;5.880;2023-11-19T14:44:08;18.37;85.13
65985;HTU21D;52748;51.112;5.880;2023-11-19T14:46:35;18.40;84.88
65985;HTU21D;52748;51.112;5.880;2023-11-19T14:49:01;18.39;84.97
65985;HTU21D;52748;51.112;5.880;2023-11-19T14:51:27;18.38;84.90
65985;HTU21D;52748;51.112;5.880;2023-11-19T14:53:52;18.39;84.85
65985;HTU21D;52748;51.112;5.880;2023-11-19T14:56:18;18.39;84.75
65985;HTU21D;52748;51.112;5.880;2023-11-19T14:58:44;18.41;84.77
65985;HTU21D;52748;51.112;5.880;2023-11-19T15:01:14;18.41;84.81
65985;HTU21D;52748;51.112;5.880;2023-11-19T15:03:40;18.40;84.52
65985;HTU21D;52748;51.112;5.880;2023-11-19T15:06:06;18.37;81.26
65985;HTU21D;52748;51.112;5.880;2023-11-19T15:08:33;18.32;80.81
65985;HTU21D;52748;51.112;5.880;2023-11-19T15:10:59;18.32;82.61
65985;HTU21D;52748;51.112;5.880;2023-11-19T15:13:27;18.34;84.04
65985;HTU21D;52748;51.112;5.880;2023-11-19T15:15:53;18.35;85.09
65985;HTU21D;52748;51.112;5.880;2023-11-19T15:18:21;18.37;85.74
65985;HTU21D;52748;51.112;5.880;2023-11-19T15:20:46;18.38;86.22
65985;HTU21D;52748;51.112;5.880;2023-11-19T15:23:13;18.40;86.52
65985;HTU21D;52748;51.112;5.880;2023-11-19T15:25:39;18.42;86.87
65985;HTU21D;52748;51.112;5.880;2023-11-19T15:28:05;18.42;87.19
65985;HTU21D;52748;51.112;5.880;2023-11-19T15:30:31;18.44;87.21
65985;HTU21D;52748;51.112;5.880;2023-11-19T15:32:56;18.46;87.28
65985;HTU21D;52748;51.112;5.880;2023-11-19T15:35:22;18.46;85.01
65985;HTU21D;52748;51.112;5.880;2023-11-19T15:37:48;18.44;84.38